DFFD Airport Information

Runway Information
Runway 04L Length 9934 ft width 148 ft
Elevation 1034 ft Threshold 0 ft Heading 33
Runway 22R Length 9934 ft Width 148 ft
Elevation 982 ft Threshold 0 ft Heading 213
Runway 04R Length 6269 ft width 98 ft
Elevation 1040 ft Threshold 0 ft Heading 35
Runway 22L Length 6269 ft Width 98 ft
Elevation 994 ft Threshold 0 ft Heading 215
Airport Frequencies
Type A/G Name AG VOICE O Frequency 120.3 MHZ
Type APP Name OUAGA APP Frequency 118.1 MHZ
Type TWR Name OUAGA TWR Frequency 118.1 MHZ
Airport Navaids
Type VOR-DME Name Ouagadougou Frequency 112900 KHZ
Type NDB Name Ouagadougou Frequency 333 KHZ
Airport Weather Information & NOTAM
ADDS - METARS form results

(0428 UTC 18 July 2018)
 
METAR text: DFFD 180400Z 26002KT CAVOK 24/23 Q1013 NOSIG
Conditions at: DFFD (OUAGADOUGOU (MIL, BF) observed 0400 UTC 18 July 2018
Temperature: 24.0°C (75°F)
Dewpoint: 23.0°C (73°F) [RH = 94%]
Pressure (altimeter): 29.91 inches Hg (1013.0 mb)
Winds: from the W (260 degrees) at 2 MPH (2 knots; 1.0 m/s)
Visibility: 6 or more miles (10+ km)
Ceiling: ceiling and visibility are OK
Clouds: unknown
Weather: no significant weather observed at this time